sensor_id;sensor_type;location;lat;lon;timestamp;P1;durP1;ratioP1;P2;durP2;ratioP2
24859;SDS011;12936;52.006;4.350;2023-02-24T00:02:11;9.87;;;1.83;;
24859;SDS011;12936;52.006;4.350;2023-02-24T00:04:40;8.17;;;1.83;;
24859;SDS011;12936;52.006;4.350;2023-02-24T00:07:10;13.03;;;2.17;;
24859;SDS011;12936;52.006;4.350;2023-02-24T00:09:42;12.97;;;2.50;;
24859;SDS011;12936;52.006;4.350;2023-02-24T00:12:13;9.83;;;2.20;;
24859;SDS011;12936;52.006;4.350;2023-02-24T00:14:43;9.83;;;1.53;;
24859;SDS011;12936;52.006;4.350;2023-02-24T00:17:12;7.67;;;1.60;;
24859;SDS011;12936;52.006;4.350;2023-02-24T00:19:40;9.00;;;2.03;;
24859;SDS011;12936;52.006;4.350;2023-02-24T00:22:09;7.93;;;1.80;;
24859;SDS011;12936;52.006;4.350;2023-02-24T00:24:39;12.90;;;2.00;;
24859;SDS011;12936;52.006;4.350;2023-02-24T00:27:07;11.63;;;1.93;;
24859;SDS011;12936;52.006;4.350;2023-02-24T00:29:43;11.80;;;2.03;;
24859;SDS011;12936;52.006;4.350;2023-02-24T00:32:12;14.20;;;2.53;;
24859;SDS011;12936;52.006;4.350;2023-02-24T00:34:40;10.27;;;1.70;;
24859;SDS011;12936;52.006;4.350;2023-02-24T00:37:09;7.03;;;1.47;;
24859;SDS011;12936;52.006;4.350;2023-02-24T00:39:37;11.70;;;1.90;;
24859;SDS011;12936;52.006;4.350;2023-02-24T00:42:07;8.87;;;1.40;;
24859;SDS011;12936;52.006;4.350;2023-02-24T00:44:38;6.13;;;1.67;;
24859;SDS011;12936;52.006;4.350;2023-02-24T00:47:08;7.53;;;1.80;;
24859;SDS011;12936;52.006;4.350;2023-02-24T00:49:37;14.00;;;1.90;;
24859;SDS011;12936;52.006;4.350;2023-02-24T00:52:09;7.20;;;1.37;;
24859;SDS011;12936;52.006;4.350;2023-02-24T00:54:39;8.37;;;1.77;;
24859;SDS011;12936;52.006;4.350;2023-02-24T00:57:07;9.80;;;1.30;;
24859;SDS011;12936;52.006;4.350;2023-02-24T00:59:36;7.03;;;1.20;;
24859;SDS011;12936;52.006;4.350;2023-02-24T01:02:05;8.83;;;1.30;;
24859;SDS011;12936;52.006;4.350;2023-02-24T01:04:34;10.53;;;1.93;;
24859;SDS011;12936;52.006;4.350;2023-02-24T01:07:04;10.07;;;1.20;;
24859;SDS011;12936;52.006;4.350;2023-02-24T01:09:37;9.60;;;1.30;;
24859;SDS011;12936;52.006;4.350;2023-02-24T01:12:07;11.90;;;1.53;;
24859;SDS011;12936;52.006;4.350;2023-02-24T01:14:54;7.70;;;1.73;;
24859;SDS011;12936;52.006;4.350;2023-02-24T01:17:23;6.87;;;1.30;;
24859;SDS011;12936;52.006;4.350;2023-02-24T01:19:53;9.33;;;1.40;;
24859;SDS011;12936;52.006;4.350;2023-02-24T01:22:25;5.63;;;1.37;;
24859;SDS011;12936;52.006;4.350;2023-02-24T01:24:53;11.17;;;1.70;;
24859;SDS011;12936;52.006;4.350;2023-02-24T01:27:21;9.53;;;1.20;;
24859;SDS011;12936;52.006;4.350;2023-02-24T01:29:49;7.60;;;1.57;;
24859;SDS011;12936;52.006;4.350;2023-02-24T01:32:19;9.40;;;1.87;;
24859;SDS011;12936;52.006;4.350;2023-02-24T01:34:50;7.27;;;1.20;;
24859;SDS011;12936;52.006;4.350;2023-02-24T01:37:20;7.90;;;1.50;;
24859;SDS011;12936;52.006;4.350;2023-02-24T01:39:49;10.13;;;1.37;;
24859;SDS011;12936;52.006;4.350;2023-02-24T01:42:18;10.00;;;1.60;;
24859;SDS011;12936;52.006;4.350;2023-02-24T01:45:10;7.37;;;1.67;;
24859;SDS011;12936;52.006;4.350;2023-02-24T01:47:41;13.67;;;1.57;;
24859;SDS011;12936;52.006;4.350;2023-02-24T01:50:12;9.27;;;1.63;;
24859;SDS011;12936;52.006;4.350;2023-02-24T01:52:44;12.93;;;1.23;;
24859;SDS011;12936;52.006;4.350;2023-02-24T01:55:15;15.20;;;1.83;;
24859;SDS011;12936;52.006;4.350;2023-02-24T01:57:47;7.70;;;1.33;;
24859;SDS011;12936;52.006;4.350;2023-02-24T02:00:19;7.73;;;0.97;;
24859;SDS011;12936;52.006;4.350;2023-02-24T02:03:10;7.10;;;1.50;;
24859;SDS011;12936;52.006;4.350;2023-02-24T02:05:45;8.30;;;1.67;;
24859;SDS011;12936;52.006;4.350;2023-02-24T02:08:16;10.60;;;1.70;;
24859;SDS011;12936;52.006;4.350;2023-02-24T02:10:46;9.47;;;1.47;;
24859;SDS011;12936;52.006;4.350;2023-02-24T02:13:15;10.30;;;1.53;;
24859;SDS011;12936;52.006;4.350;2023-02-24T02:15:49;11.13;;;1.13;;
24859;SDS011;12936;52.006;4.350;2023-02-24T02:18:41;10.57;;;1.47;;
24859;SDS011;12936;52.006;4.350;2023-02-24T02:21:35;12.07;;;1.70;;
24859;SDS011;12936;52.006;4.350;2023-02-24T02:24:36;7.40;;;1.23;;
24859;SDS011;12936;52.006;4.350;2023-02-24T02:30:34;5.73;;;1.10;;
24859;SDS011;12936;52.006;4.350;2023-02-24T02:33:18;10.33;;;1.40;;
24859;SDS011;12936;52.006;4.350;2023-02-24T02:36:08;6.60;;;1.07;;
24859;SDS011;12936;52.006;4.350;2023-02-24T02:38:46;8.47;;;1.43;;
24859;SDS011;12936;52.006;4.350;2023-02-24T02:41:23;12.73;;;1.30;;
24859;SDS011;12936;52.006;4.350;2023-02-24T02:43:57;8.27;;;1.40;;
24859;SDS011;12936;52.006;4.350;2023-02-24T02:46:35;6.70;;;1.33;;
24859;SDS011;12936;52.006;4.350;2023-02-24T02:49:12;7.97;;;1.50;;
24859;SDS011;12936;52.006;4.350;2023-02-24T02:51:48;6.57;;;1.30;;
24859;SDS011;12936;52.006;4.350;2023-02-24T02:54:21;8.03;;;1.40;;
24859;SDS011;12936;52.006;4.350;2023-02-24T02:56:56;7.90;;;1.57;;
24859;SDS011;12936;52.006;4.350;2023-02-24T02:59:28;4.10;;;0.83;;
24859;SDS011;12936;52.006;4.350;2023-02-24T03:01:59;4.30;;;0.90;;
24859;SDS011;12936;52.006;4.350;2023-02-24T03:04:39;4.93;;;0.80;;
24859;SDS011;12936;52.006;4.350;2023-02-24T03:07:13;8.93;;;1.20;;
24859;SDS011;12936;52.006;4.350;2023-02-24T03:09:43;5.50;;;0.90;;
24859;SDS011;12936;52.006;4.350;2023-02-24T03:12:17;6.60;;;0.90;;
24859;SDS011;12936;52.006;4.350;2023-02-24T03:14:48;9.67;;;1.40;;
24859;SDS011;12936;52.006;4.350;2023-02-24T03:17:23;6.37;;;1.17;;
24859;SDS011;12936;52.006;4.350;2023-02-24T03:19:54;6.33;;;1.00;;
24859;SDS011;12936;52.006;4.350;2023-02-24T03:22:30;8.43;;;1.00;;
24859;SDS011;12936;52.006;4.350;2023-02-24T03:25:03;4.70;;;1.03;;
24859;SDS011;12936;52.006;4.350;2023-02-24T03:27:33;10.07;;;1.40;;
24859;SDS011;12936;52.006;4.350;2023-02-24T03:30:08;6.40;;;1.20;;
24859;SDS011;12936;52.006;4.350;2023-02-24T03:32:42;9.67;;;1.17;;
24859;SDS011;12936;52.006;4.350;2023-02-24T03:35:23;5.83;;;1.67;;
24859;SDS011;12936;52.006;4.350;2023-02-24T03:37:55;4.63;;;1.20;;
24859;SDS011;12936;52.006;4.350;2023-02-24T03:40:25;5.93;;;1.07;;
24859;SDS011;12936;52.006;4.350;2023-02-24T03:43:02;6.60;;;1.03;;
24859;SDS011;12936;52.006;4.350;2023-02-24T03:45:34;7.07;;;1.07;;
24859;SDS011;12936;52.006;4.350;2023-02-24T03:48:04;6.50;;;1.10;;
24859;SDS011;12936;52.006;4.350;2023-02-24T03:50:34;5.17;;;0.90;;
24859;SDS011;12936;52.006;4.350;2023-02-24T03:53:10;9.23;;;1.00;;
24859;SDS011;12936;52.006;4.350;2023-02-24T03:55:51;2.27;;;0.73;;
24859;SDS011;12936;52.006;4.350;2023-02-24T03:58:28;4.07;;;0.80;;
24859;SDS011;12936;52.006;4.350;2023-02-24T04:01:07;2.97;;;0.80;;
24859;SDS011;12936;52.006;4.350;2023-02-24T04:03:41;6.10;;;0.73;;
24859;SDS011;12936;52.006;4.350;2023-02-24T04:06:17;9.63;;;1.03;;
24859;SDS011;12936;52.006;4.350;2023-02-24T04:08:55;2.93;;;0.80;;
24859;SDS011;12936;52.006;4.350;2023-02-24T04:11:31;4.07;;;0.57;;
24859;SDS011;12936;52.006;4.350;2023-02-24T04:14:27;3.70;;;0.90;;
24859;SDS011;12936;52.006;4.350;2023-02-24T04:17:00;4.97;;;0.83;;
24859;SDS011;12936;52.006;4.350;2023-02-24T04:19:34;3.50;;;1.03;;
24859;SDS011;12936;52.006;4.350;2023-02-24T04:22:06;5.53;;;1.10;;
24859;SDS011;12936;52.006;4.350;2023-02-24T04:24:38;7.00;;;0.83;;
24859;SDS011;12936;52.006;4.350;2023-02-24T04:27:09;9.17;;;1.20;;
24859;SDS011;12936;52.006;4.350;2023-02-24T04:29:41;4.90;;;0.90;;
24859;SDS011;12936;52.006;4.350;2023-02-24T04:32:14;6.97;;;1.20;;
24859;SDS011;12936;52.006;4.350;2023-02-24T04:34:46;7.47;;;1.50;;
24859;SDS011;12936;52.006;4.350;2023-02-24T04:37:15;8.57;;;1.60;;
24859;SDS011;12936;52.006;4.350;2023-02-24T04:39:49;7.83;;;1.57;;
24859;SDS011;12936;52.006;4.350;2023-02-24T04:42:17;5.80;;;1.57;;
24859;SDS011;12936;52.006;4.350;2023-02-24T04:44:47;8.37;;;2.10;;
24859;SDS011;12936;52.006;4.350;2023-02-24T04:47:15;9.83;;;1.67;;
24859;SDS011;12936;52.006;4.350;2023-02-24T04:49:43;10.43;;;1.63;;
24859;SDS011;12936;52.006;4.350;2023-02-24T04:52:11;8.33;;;1.70;;
24859;SDS011;12936;52.006;4.350;2023-02-24T04:54:40;3.20;;;1.30;;
24859;SDS011;12936;52.006;4.350;2023-02-24T04:57:11;8.27;;;1.63;;
24859;SDS011;12936;52.006;4.350;2023-02-24T04:59:39;9.70;;;3.30;;
24859;SDS011;12936;52.006;4.350;2023-02-24T05:02:07;8.53;;;1.80;;
24859;SDS011;12936;52.006;4.350;2023-02-24T05:04:35;9.67;;;1.73;;
24859;SDS011;12936;52.006;4.350;2023-02-24T05:07:04;12.33;;;2.03;;
24859;SDS011;12936;52.006;4.350;2023-02-24T05:09:32;5.30;;;1.37;;
24859;SDS011;12936;52.006;4.350;2023-02-24T05:12:00;4.37;;;1.50;;
24859;SDS011;12936;52.006;4.350;2023-02-24T05:14:31;11.73;;;1.80;;
24859;SDS011;12936;52.006;4.350;2023-02-24T05:16:59;6.93;;;2.00;;
24859;SDS011;12936;52.006;4.350;2023-02-24T05:19:28;9.30;;;1.83;;
24859;SDS011;12936;52.006;4.350;2023-02-24T05:22:09;6.40;;;1.80;;
24859;SDS011;12936;52.006;4.350;2023-02-24T05:24:39;10.43;;;1.63;;
24859;SDS011;12936;52.006;4.350;2023-02-24T05:27:07;7.87;;;1.90;;
24859;SDS011;12936;52.006;4.350;2023-02-24T05:29:37;6.37;;;2.17;;
24859;SDS011;12936;52.006;4.350;2023-02-24T05:32:06;9.97;;;1.90;;
24859;SDS011;12936;52.006;4.350;2023-02-24T05:34:36;9.93;;;1.80;;
24859;SDS011;12936;52.006;4.350;2023-02-24T05:37:04;9.10;;;1.67;;
24859;SDS011;12936;52.006;4.350;2023-02-24T05:39:36;8.90;;;1.67;;
24859;SDS011;12936;52.006;4.350;2023-02-24T05:42:04;8.17;;;1.77;;
24859;SDS011;12936;52.006;4.350;2023-02-24T05:44:33;9.53;;;1.80;;
24859;SDS011;12936;52.006;4.350;2023-02-24T05:47:02;8.17;;;1.77;;
24859;SDS011;12936;52.006;4.350;2023-02-24T05:49:32;7.00;;;1.70;;
24859;SDS011;12936;52.006;4.350;2023-02-24T05:52:01;8.00;;;1.47;;
24859;SDS011;12936;52.006;4.350;2023-02-24T05:54:33;10.70;;;2.10;;
24859;SDS011;12936;52.006;4.350;2023-02-24T05:57:04;9.93;;;1.73;;
24859;SDS011;12936;52.006;4.350;2023-02-24T05:59:34;10.97;;;1.90;;
24859;SDS011;12936;52.006;4.350;2023-02-24T06:02:05;7.80;;;1.93;;
24859;SDS011;12936;52.006;4.350;2023-02-24T06:04:35;10.10;;;1.90;;
24859;SDS011;12936;52.006;4.350;2023-02-24T06:07:12;10.97;;;1.90;;
24859;SDS011;12936;52.006;4.350;2023-02-24T06:09:44;12.03;;;1.87;;
24859;SDS011;12936;52.006;4.350;2023-02-24T06:12:16;9.07;;;1.83;;
24859;SDS011;12936;52.006;4.350;2023-02-24T06:14:45;6.43;;;1.80;;
24859;SDS011;12936;52.006;4.350;2023-02-24T06:17:15;13.87;;;1.90;;
24859;SDS011;12936;52.006;4.350;2023-02-24T06:19:45;6.90;;;1.40;;
24859;SDS011;12936;52.006;4.350;2023-02-24T06:22:17;6.57;;;1.30;;
24859;SDS011;12936;52.006;4.350;2023-02-24T06:24:48;10.47;;;1.60;;
24859;SDS011;12936;52.006;4.350;2023-02-24T06:27:19;7.33;;;1.17;;
24859;SDS011;12936;52.006;4.350;2023-02-24T06:29:51;9.80;;;1.50;;
24859;SDS011;12936;52.006;4.350;2023-02-24T06:32:22;7.40;;;1.20;;
24859;SDS011;12936;52.006;4.350;2023-02-24T06:34:53;9.30;;;2.07;;
24859;SDS011;12936;52.006;4.350;2023-02-24T06:37:22;9.53;;;1.23;;
24859;SDS011;12936;52.006;4.350;2023-02-24T06:39:50;9.33;;;1.60;;
24859;SDS011;12936;52.006;4.350;2023-02-24T06:42:18;9.23;;;2.03;;
24859;SDS011;12936;52.006;4.350;2023-02-24T06:44:46;9.63;;;1.80;;
24859;SDS011;12936;52.006;4.350;2023-02-24T06:47:15;8.10;;;1.60;;
24859;SDS011;12936;52.006;4.350;2023-02-24T06:49:44;18.07;;;1.80;;
24859;SDS011;12936;52.006;4.350;2023-02-24T06:52:13;13.50;;;1.87;;
24859;SDS011;12936;52.006;4.350;2023-02-24T06:54:46;10.50;;;1.80;;
24859;SDS011;12936;52.006;4.350;2023-02-24T06:57:14;18.17;;;2.10;;
24859;SDS011;12936;52.006;4.350;2023-02-24T06:59:43;15.23;;;1.97;;
24859;SDS011;12936;52.006;4.350;2023-02-24T07:02:11;9.97;;;1.90;;
24859;SDS011;12936;52.006;4.350;2023-02-24T07:04:39;15.63;;;2.03;;
24859;SDS011;12936;52.006;4.350;2023-02-24T07:07:11;6.20;;;1.70;;
24859;SDS011;12936;52.006;4.350;2023-02-24T07:09:40;8.83;;;1.90;;
24859;SDS011;12936;52.006;4.350;2023-02-24T07:12:10;10.63;;;1.50;;
24859;SDS011;12936;52.006;4.350;2023-02-24T07:14:38;10.60;;;1.90;;
24859;SDS011;12936;52.006;4.350;2023-02-24T07:17:06;6.97;;;1.40;;
24859;SDS011;12936;52.006;4.350;2023-02-24T07:19:35;11.43;;;2.10;;
24859;SDS011;12936;52.006;4.350;2023-02-24T07:22:03;12.10;;;1.93;;
24859;SDS011;12936;52.006;4.350;2023-02-24T07:24:34;13.97;;;2.63;;
24859;SDS011;12936;52.006;4.350;2023-02-24T07:27:05;8.43;;;2.20;;
24859;SDS011;12936;52.006;4.350;2023-02-24T07:29:36;11.07;;;2.30;;
24859;SDS011;12936;52.006;4.350;2023-02-24T07:32:06;11.37;;;2.23;;
24859;SDS011;12936;52.006;4.350;2023-02-24T07:34:35;7.13;;;1.93;;
24859;SDS011;12936;52.006;4.350;2023-02-24T07:37:05;11.77;;;2.53;;
24859;SDS011;12936;52.006;4.350;2023-02-24T07:39:36;12.30;;;2.10;;
24859;SDS011;12936;52.006;4.350;2023-02-24T07:42:06;13.03;;;2.60;;
24859;SDS011;12936;52.006;4.350;2023-02-24T07:44:35;8.03;;;2.20;;
24859;SDS011;12936;52.006;4.350;2023-02-24T07:47:04;12.10;;;3.07;;
24859;SDS011;12936;52.006;4.350;2023-02-24T07:49:33;9.13;;;1.90;;
24859;SDS011;12936;52.006;4.350;2023-02-24T07:52:02;16.93;;;2.63;;
24859;SDS011;12936;52.006;4.350;2023-02-24T07:54:33;12.40;;;2.17;;
24859;SDS011;12936;52.006;4.350;2023-02-24T07:57:04;14.23;;;2.47;;
24859;SDS011;12936;52.006;4.350;2023-02-24T07:59:39;13.87;;;2.70;;
24859;SDS011;12936;52.006;4.350;2023-02-24T08:02:12;10.43;;;2.83;;
24859;SDS011;12936;52.006;4.350;2023-02-24T08:04:40;9.00;;;2.20;;
24859;SDS011;12936;52.006;4.350;2023-02-24T08:07:15;11.37;;;2.47;;
24859;SDS011;12936;52.006;4.350;2023-02-24T08:09:51;14.73;;;2.20;;
24859;SDS011;12936;52.006;4.350;2023-02-24T08:12:37;12.93;;;2.07;;
24859;SDS011;12936;52.006;4.350;2023-02-24T08:15:08;13.57;;;2.17;;
24859;SDS011;12936;52.006;4.350;2023-02-24T08:17:49;6.73;;;2.20;;
24859;SDS011;12936;52.006;4.350;2023-02-24T08:20:18;13.73;;;1.87;;
24859;SDS011;12936;52.006;4.350;2023-02-24T08:22:48;14.50;;;2.27;;
24859;SDS011;12936;52.006;4.350;2023-02-24T08:25:19;10.93;;;1.83;;
24859;SDS011;12936;52.006;4.350;2023-02-24T08:27:50;13.73;;;2.10;;
24859;SDS011;12936;52.006;4.350;2023-02-24T08:30:39;7.40;;;1.80;;
24859;SDS011;12936;52.006;4.350;2023-02-24T08:33:12;11.13;;;1.87;;
24859;SDS011;12936;52.006;4.350;2023-02-24T08:35:44;11.57;;;2.17;;
24859;SDS011;12936;52.006;4.350;2023-02-24T08:38:18;13.83;;;2.70;;
24859;SDS011;12936;52.006;4.350;2023-02-24T08:40:53;14.10;;;2.33;;
24859;SDS011;12936;52.006;4.350;2023-02-24T08:43:25;13.10;;;2.07;;
24859;SDS011;12936;52.006;4.350;2023-02-24T08:45:59;14.37;;;2.53;;
24859;SDS011;12936;52.006;4.350;2023-02-24T08:48:31;13.53;;;2.20;;
24859;SDS011;12936;52.006;4.350;2023-02-24T08:51:05;12.13;;;2.60;;
24859;SDS011;12936;52.006;4.350;2023-02-24T08:53:36;14.43;;;1.77;;
24859;SDS011;12936;52.006;4.350;2023-02-24T08:56:08;15.03;;;2.23;;
24859;SDS011;12936;52.006;4.350;2023-02-24T08:58:38;8.60;;;2.10;;
24859;SDS011;12936;52.006;4.350;2023-02-24T09:01:13;9.77;;;1.80;;
24859;SDS011;12936;52.006;4.350;2023-02-24T09:03:50;8.27;;;1.70;;
24859;SDS011;12936;52.006;4.350;2023-02-24T09:06:22;10.00;;;1.70;;
24859;SDS011;12936;52.006;4.350;2023-02-24T09:08:54;10.17;;;1.90;;
24859;SDS011;12936;52.006;4.350;2023-02-24T09:11:38;16.37;;;2.23;;
24859;SDS011;12936;52.006;4.350;2023-02-24T09:14:10;11.10;;;2.23;;
24859;SDS011;12936;52.006;4.350;2023-02-24T09:16:57;13.20;;;1.93;;
24859;SDS011;12936;52.006;4.350;2023-02-24T09:19:29;11.53;;;2.00;;
24859;SDS011;12936;52.006;4.350;2023-02-24T09:22:27;9.20;;;2.40;;
24859;SDS011;12936;52.006;4.350;2023-02-24T09:25:23;15.93;;;2.40;;
24859;SDS011;12936;52.006;4.350;2023-02-24T09:28:07;16.17;;;2.50;;
24859;SDS011;12936;52.006;4.350;2023-02-24T09:30:43;7.50;;;1.73;;
24859;SDS011;12936;52.006;4.350;2023-02-24T09:33:20;13.20;;;3.77;;
24859;SDS011;12936;52.006;4.350;2023-02-24T09:35:52;16.43;;;2.50;;
24859;SDS011;12936;52.006;4.350;2023-02-24T09:38:35;12.60;;;3.03;;
24859;SDS011;12936;52.006;4.350;2023-02-24T09:41:37;17.27;;;3.63;;
24859;SDS011;12936;52.006;4.350;2023-02-24T09:44:30;21.57;;;4.00;;
24859;SDS011;12936;52.006;4.350;2023-02-24T09:47:02;16.97;;;4.43;;
24859;SDS011;12936;52.006;4.350;2023-02-24T09:49:42;11.87;;;3.87;;
24859;SDS011;12936;52.006;4.350;2023-02-24T09:52:15;15.67;;;4.47;;
24859;SDS011;12936;52.006;4.350;2023-02-24T09:54:45;12.50;;;4.80;;
24859;SDS011;12936;52.006;4.350;2023-02-24T09:57:35;13.27;;;4.70;;
24859;SDS011;12936;52.006;4.350;2023-02-24T10:00:33;16.30;;;4.60;;
24859;SDS011;12936;52.006;4.350;2023-02-24T10:03:11;14.70;;;5.30;;
24859;SDS011;12936;52.006;4.350;2023-02-24T10:06:14;10.23;;;4.63;;
24859;SDS011;12936;52.006;4.350;2023-02-24T10:08:51;11.77;;;5.30;;
24859;SDS011;12936;52.006;4.350;2023-02-24T10:11:22;13.07;;;5.77;;
24859;SDS011;12936;52.006;4.350;2023-02-24T10:14:01;14.70;;;6.30;;
24859;SDS011;12936;52.006;4.350;2023-02-24T10:16:35;14.80;;;5.57;;
24859;SDS011;12936;52.006;4.350;2023-02-24T10:19:17;9.37;;;4.97;;
24859;SDS011;12936;52.006;4.350;2023-02-24T10:21:52;16.70;;;6.70;;
24859;SDS011;12936;52.006;4.350;2023-02-24T10:24:29;13.93;;;7.93;;
24859;SDS011;12936;52.006;4.350;2023-02-24T10:27:05;17.10;;;7.30;;
24859;SDS011;12936;52.006;4.350;2023-02-24T10:29:49;14.73;;;6.90;;
24859;SDS011;12936;52.006;4.350;2023-02-24T10:32:31;15.97;;;8.33;;
24859;SDS011;12936;52.006;4.350;2023-02-24T10:35:11;19.57;;;7.87;;
24859;SDS011;12936;52.006;4.350;2023-02-24T10:37:42;15.43;;;7.10;;
24859;SDS011;12936;52.006;4.350;2023-02-24T10:40:11;17.13;;;7.97;;
24859;SDS011;12936;52.006;4.350;2023-02-24T10:42:49;20.10;;;7.27;;
24859;SDS011;12936;52.006;4.350;2023-02-24T10:45:38;14.30;;;7.83;;
24859;SDS011;12936;52.006;4.350;2023-02-24T10:48:15;14.10;;;7.30;;
24859;SDS011;12936;52.006;4.350;2023-02-24T10:51:10;12.27;;;7.93;;
24859;SDS011;12936;52.006;4.350;2023-02-24T10:53:46;12.27;;;7.23;;
24859;SDS011;12936;52.006;4.350;2023-02-24T10:56:38;10.93;;;6.63;;
24859;SDS011;12936;52.006;4.350;2023-02-24T10:59:20;13.37;;;6.50;;
24859;SDS011;12936;52.006;4.350;2023-02-24T11:02:14;14.57;;;7.20;;
24859;SDS011;12936;52.006;4.350;2023-02-24T11:04:55;14.60;;;8.43;;
24859;SDS011;12936;52.006;4.350;2023-02-24T11:08:03;9.97;;;6.80;;
24859;SDS011;12936;52.006;4.350;2023-02-24T11:10:41;12.07;;;6.97;;
24859;SDS011;12936;52.006;4.350;2023-02-24T11:13:23;12.07;;;7.80;;
24859;SDS011;12936;52.006;4.350;2023-02-24T11:16:10;10.43;;;6.70;;
24859;SDS011;12936;52.006;4.350;2023-02-24T11:18:57;10.03;;;6.83;;
24859;SDS011;12936;52.006;4.350;2023-02-24T11:21:25;11.40;;;7.10;;
24859;SDS011;12936;52.006;4.350;2023-02-24T11:23:55;10.83;;;5.93;;
24859;SDS011;12936;52.006;4.350;2023-02-24T11:26:30;13.03;;;6.87;;
24859;SDS011;12936;52.006;4.350;2023-02-24T11:29:13;9.23;;;6.67;;
24859;SDS011;12936;52.006;4.350;2023-02-24T11:31:59;9.27;;;6.83;;
24859;SDS011;12936;52.006;4.350;2023-02-24T11:34:42;10.77;;;6.40;;
24859;SDS011;12936;52.006;4.350;2023-02-24T11:37:22;14.60;;;7.20;;
24859;SDS011;12936;52.006;4.350;2023-02-24T11:40:02;13.80;;;7.10;;
24859;SDS011;12936;52.006;4.350;2023-02-24T11:42:35;15.00;;;7.63;;
24859;SDS011;12936;52.006;4.350;2023-02-24T11:45:10;14.13;;;7.13;;
24859;SDS011;12936;52.006;4.350;2023-02-24T11:47:48;16.77;;;8.20;;
24859;SDS011;12936;52.006;4.350;2023-02-24T11:50:34;15.40;;;7.37;;
24859;SDS011;12936;52.006;4.350;2023-02-24T11:55:59;21.43;;;8.40;;
24859;SDS011;12936;52.006;4.350;2023-02-24T11:58:33;17.07;;;8.40;;
24859;SDS011;12936;52.006;4.350;2023-02-24T12:01:08;20.27;;;8.33;;
24859;SDS011;12936;52.006;4.350;2023-02-24T12:03:43;27.00;;;8.07;;
24859;SDS011;12936;52.006;4.350;2023-02-24T12:06:22;24.73;;;8.73;;
24859;SDS011;12936;52.006;4.350;2023-02-24T12:08:56;20.17;;;7.00;;
24859;SDS011;12936;52.006;4.350;2023-02-24T12:11:31;24.80;;;7.77;;
24859;SDS011;12936;52.006;4.350;2023-02-24T12:14:12;21.47;;;6.20;;
24859;SDS011;12936;52.006;4.350;2023-02-24T12:16:50;28.57;;;7.13;;
24859;SDS011;12936;52.006;4.350;2023-02-24T12:19:25;30.40;;;7.20;;
24859;SDS011;12936;52.006;4.350;2023-02-24T12:22:00;21.03;;;5.40;;
24859;SDS011;12936;52.006;4.350;2023-02-24T12:24:33;18.63;;;4.83;;
24859;SDS011;12936;52.006;4.350;2023-02-24T12:27:05;27.47;;;5.10;;
24859;SDS011;12936;52.006;4.350;2023-02-24T12:29:49;22.23;;;4.50;;
24859;SDS011;12936;52.006;4.350;2023-02-24T12:32:37;26.43;;;4.40;;
24859;SDS011;12936;52.006;4.350;2023-02-24T12:35:13;25.67;;;3.97;;
24859;SDS011;12936;52.006;4.350;2023-02-24T12:37:54;28.20;;;3.77;;
24859;SDS011;12936;52.006;4.350;2023-02-24T12:40:34;25.17;;;4.10;;
24859;SDS011;12936;52.006;4.350;2023-02-24T12:43:17;27.10;;;3.43;;
24859;SDS011;12936;52.006;4.350;2023-02-24T12:45:52;21.00;;;2.93;;
24859;SDS011;12936;52.006;4.350;2023-02-24T12:48:31;23.47;;;3.37;;
24859;SDS011;12936;52.006;4.350;2023-02-24T12:51:19;26.93;;;3.53;;
24859;SDS011;12936;52.006;4.350;2023-02-24T12:53:56;14.07;;;3.23;;
24859;SDS011;12936;52.006;4.350;2023-02-24T12:56:33;23.13;;;3.87;;
24859;SDS011;12936;52.006;4.350;2023-02-24T12:59:07;22.37;;;3.23;;
24859;SDS011;12936;52.006;4.350;2023-02-24T13:01:44;26.43;;;3.50;;
24859;SDS011;12936;52.006;4.350;2023-02-24T13:04:22;22.93;;;3.27;;
24859;SDS011;12936;52.006;4.350;2023-02-24T13:07:05;22.33;;;4.17;;
24859;SDS011;12936;52.006;4.350;2023-02-24T13:09:40;28.27;;;4.10;;
24859;SDS011;12936;52.006;4.350;2023-02-24T13:12:16;23.83;;;4.00;;
24859;SDS011;12936;52.006;4.350;2023-02-24T13:14:53;20.50;;;3.27;;
24859;SDS011;12936;52.006;4.350;2023-02-24T13:17:22;27.67;;;3.90;;
24859;SDS011;12936;52.006;4.350;2023-02-24T13:19:52;30.33;;;4.50;;
24859;SDS011;12936;52.006;4.350;2023-02-24T13:22:27;22.97;;;3.60;;
24859;SDS011;12936;52.006;4.350;2023-02-24T13:25:00;16.60;;;3.00;;
24859;SDS011;12936;52.006;4.350;2023-02-24T13:27:58;27.90;;;3.97;;
24859;SDS011;12936;52.006;4.350;2023-02-24T13:30:35;24.60;;;3.33;;
24859;SDS011;12936;52.006;4.350;2023-02-24T13:33:20;21.70;;;4.40;;
24859;SDS011;12936;52.006;4.350;2023-02-24T13:35:51;24.67;;;4.30;;
24859;SDS011;12936;52.006;4.350;2023-02-24T13:38:35;25.70;;;4.10;;
24859;SDS011;12936;52.006;4.350;2023-02-24T13:41:07;25.97;;;3.50;;
24859;SDS011;12936;52.006;4.350;2023-02-24T13:43:54;13.83;;;2.87;;
24859;SDS011;12936;52.006;4.350;2023-02-24T13:46:25;24.67;;;3.70;;
24859;SDS011;12936;52.006;4.350;2023-02-24T13:48:59;18.33;;;3.13;;
24859;SDS011;12936;52.006;4.350;2023-02-24T13:51:46;23.53;;;2.87;;
24859;SDS011;12936;52.006;4.350;2023-02-24T13:54:32;24.03;;;3.00;;
24859;SDS011;12936;52.006;4.350;2023-02-24T13:57:33;28.13;;;3.73;;
24859;SDS011;12936;52.006;4.350;2023-02-24T14:00:26;15.50;;;3.10;;
24859;SDS011;12936;52.006;4.350;2023-02-24T14:03:00;18.37;;;2.97;;
24859;SDS011;12936;52.006;4.350;2023-02-24T14:05:38;17.57;;;2.60;;
24859;SDS011;12936;52.006;4.350;2023-02-24T14:08:12;16.77;;;2.10;;
24859;SDS011;12936;52.006;4.350;2023-02-24T14:10:48;14.20;;;1.77;;
24859;SDS011;12936;52.006;4.350;2023-02-24T14:13:22;14.37;;;1.83;;
24859;SDS011;12936;52.006;4.350;2023-02-24T14:15:53;12.77;;;1.90;;
24859;SDS011;12936;52.006;4.350;2023-02-24T14:18:23;14.87;;;2.53;;
24859;SDS011;12936;52.006;4.350;2023-02-24T14:20:52;17.57;;;2.10;;
24859;SDS011;12936;52.006;4.350;2023-02-24T14:23:22;10.60;;;2.17;;
24859;SDS011;12936;52.006;4.350;2023-02-24T14:25:52;15.23;;;1.73;;
24859;SDS011;12936;52.006;4.350;2023-02-24T14:28:25;22.90;;;3.27;;
24859;SDS011;12936;52.006;4.350;2023-02-24T14:30:55;18.83;;;2.60;;
24859;SDS011;12936;52.006;4.350;2023-02-24T14:33:29;20.40;;;2.70;;
24859;SDS011;12936;52.006;4.350;2023-02-24T14:35:59;11.63;;;1.87;;
24859;SDS011;12936;52.006;4.350;2023-02-24T14:38:29;13.33;;;1.67;;
24859;SDS011;12936;52.006;4.350;2023-02-24T14:40:59;17.67;;;2.90;;
24859;SDS011;12936;52.006;4.350;2023-02-24T14:43:29;15.00;;;2.27;;
24859;SDS011;12936;52.006;4.350;2023-02-24T14:45:58;17.13;;;2.80;;
24859;SDS011;12936;52.006;4.350;2023-02-24T14:48:32;15.10;;;2.27;;
24859;SDS011;12936;52.006;4.350;2023-02-24T14:51:00;9.27;;;2.20;;
24859;SDS011;12936;52.006;4.350;2023-02-24T14:53:31;15.43;;;1.93;;
24859;SDS011;12936;52.006;4.350;2023-02-24T14:56:02;14.13;;;1.67;;
24859;SDS011;12936;52.006;4.350;2023-02-24T14:58:35;15.73;;;2.53;;
24859;SDS011;12936;52.006;4.350;2023-02-24T15:01:13;14.33;;;2.20;;
24859;SDS011;12936;52.006;4.350;2023-02-24T15:03:47;11.53;;;1.63;;
24859;SDS011;12936;52.006;4.350;2023-02-24T15:06:19;14.33;;;2.17;;
24859;SDS011;12936;52.006;4.350;2023-02-24T15:08:54;14.93;;;1.57;;
24859;SDS011;12936;52.006;4.350;2023-02-24T15:11:26;9.80;;;1.90;;
24859;SDS011;12936;52.006;4.350;2023-02-24T15:13:57;14.57;;;1.90;;
24859;SDS011;12936;52.006;4.350;2023-02-24T15:16:28;11.13;;;1.67;;
24859;SDS011;12936;52.006;4.350;2023-02-24T15:19:03;15.33;;;1.93;;
24859;SDS011;12936;52.006;4.350;2023-02-24T15:21:32;8.70;;;1.70;;
24859;SDS011;12936;52.006;4.350;2023-02-24T15:24:15;11.03;;;1.53;;
24859;SDS011;12936;52.006;4.350;2023-02-24T15:26:50;4.97;;;0.83;;
24859;SDS011;12936;52.006;4.350;2023-02-24T15:29:20;6.50;;;0.73;;
24859;SDS011;12936;52.006;4.350;2023-02-24T15:31:52;9.50;;;1.23;;